Granite Canyon, Wyoming
Current Conditions -  °F | °C
As of 8:56 PM on Friday 24 Oct 2014 (Local Time) from KFEW Reporting Station
Clear Clear  
Wind Chill: 42°   Ceiling: Unl
Heat Index: 46°   Visibility: 10mi
Dew Point: 27°   Wind: 8mph
Humidity: 48%   Direction: 230°SW
Pressure: 30.2"   Gusts: NA
Location:  41.0966°N, 105.138°W
Report Text: KFEW 250256Z AUTO 23007KT 10SM CLR 08/M03 A3020 RMK AO2 SLP188 T00771028 52010 $
Loading
Personal Weather Stations






























Interactive Weather Map
Tropical Storm Tracking
New forecast layout! Learn more

10-Day Weather Forecast

Advertisements
Track Severe Weather on mobile